Time;durP1;ratioP1;P1;durP2;ratioP2;P2;SDS_P1;SDS_P2;PMS_P1;PMS_P2;Temp;Humidity;BMP_temperature;BMP_pressure;BME280_temperature;BME280_humidity;BME280_pressure;Samples;Min_cycle;Max_cycle;Signal;HPM_P1;HPM_P2
2021/10/29 00:02:08;;;;;;;2.40;2.20;;;22.80;57.60;;;;;;5030119;28;20251;-46
2021/10/29 00:04:39;;;;;;;2.22;2.03;;;22.80;57.50;;;;;;5011863;28;20224;-45
2021/10/29 00:07:09;;;;;;;2.83;2.25;;;22.80;57.40;;;;;;5028035;28;20815;-37
2021/10/29 00:09:40;;;;;;;2.75;2.08;;;22.90;57.40;;;;;;5023432;28;20312;-42
2021/10/29 00:12:11;;;;;;;2.83;2.17;;;22.90;57.30;;;;;;5022937;28;20654;-45
2021/10/29 00:14:43;;;;;;;2.83;2.63;;;22.90;57.30;;;;;;5027996;28;20197;-44
2021/10/29 00:17:15;;;;;;;2.53;2.33;;;22.90;57.20;;;;;;5023501;28;20684;-47
2021/10/29 00:19:46;;;;;;;3.10;2.83;;;22.90;57.40;;;;;;5028206;28;20240;-43
2021/10/29 00:22:16;;;;;;;3.00;2.80;;;22.90;57.30;;;;;;5028767;28;20275;-44
2021/10/29 00:24:47;;;;;;;3.83;3.15;;;22.90;57.30;;;;;;5028351;28;20235;-46
2021/10/29 00:27:17;;;;;;;2.53;2.33;;;23.00;57.40;;;;;;5028422;28;20232;-43
2021/10/29 00:29:48;;;;;;;3.47;3.17;;;23.00;57.40;;;;;;5028255;28;20657;-42
2021/10/29 00:32:20;;;;;;;2.80;2.60;;;23.00;57.40;;;;;;5027831;28;20315;-45
2021/10/29 00:34:51;;;;;;;2.97;2.78;;;23.00;57.40;;;;;;5027708;28;20699;-39
2021/10/29 00:37:21;;;;;;;3.42;3.22;;;23.10;57.50;;;;;;5027647;28;20239;-44
2021/10/29 00:39:51;;;;;;;3.10;2.90;;;23.10;57.40;;;;;;5027761;28;20240;-36
2021/10/29 00:42:22;;;;;;;2.67;2.47;;;23.10;57.50;;;;;;5027922;28;20252;-44
2021/10/29 00:44:53;;;;;;;3.08;2.88;;;23.20;57.60;;;;;;5019241;28;20219;-44
2021/10/29 00:47:25;;;;;;;3.25;2.92;;;23.20;57.60;;;;;;5028267;28;20224;-37
2021/10/29 00:49:55;;;;;;;3.10;2.80;;;23.30;57.50;;;;;;5011884;28;20319;-40
2021/10/29 00:52:26;;;;;;;2.92;2.72;;;23.30;57.40;;;;;;5027786;28;20644;-36
2021/10/29 00:54:58;;;;;;;2.92;2.72;;;23.30;57.10;;;;;;5031985;28;20639;-39
2021/10/29 00:57:28;;;;;;;3.30;3.00;;;23.30;57.00;;;;;;5030561;28;20906;-40
2021/10/29 00:59:59;;;;;;;3.35;3.05;;;23.40;57.00;;;;;;5031188;28;20239;-45
2021/10/29 01:02:32;;;;;;;3.20;2.90;;;23.40;56.80;;;;;;5031530;28;20251;-41
2021/10/29 01:05:04;;;;;;;3.25;2.80;;;23.40;56.70;;;;;;5031778;28;20235;-42
2021/10/29 01:07:34;;;;;;;3.20;3.00;;;23.50;56.60;;;;;;5023801;28;20684;-40
2021/10/29 01:10:05;;;;;;;2.80;2.60;;;23.50;56.70;;;;;;5032344;28;20263;-41
2021/10/29 01:12:36;;;;;;;3.90;2.60;;;23.50;56.90;;;;;;5032770;28;20220;-40
2021/10/29 01:15:08;;;;;;;3.17;2.88;;;23.50;57.00;;;;;;5031100;28;20307;-40
2021/10/29 01:17:41;;;;;;;3.00;2.80;;;23.60;57.00;;;;;;5031801;28;20254;-41
2021/10/29 01:20:12;;;;;;;3.17;2.88;;;23.60;56.90;;;;;;5030800;28;20232;-44
2021/10/29 01:22:44;;;;;;;2.83;2.60;;;23.60;57.00;;;;;;5031174;28;20241;-39
2021/10/29 01:25:15;;;;;;;4.25;2.50;;;23.70;57.00;;;;;;5030858;28;20228;-37
2021/10/29 01:27:45;;;;;;;2.90;2.65;;;23.70;56.80;;;;;;5031426;28;20228;-39
2021/10/29 01:30:16;;;;;;;3.40;2.33;;;23.70;56.60;;;;;;5031325;28;20303;-40
2021/10/29 01:32:47;;;;;;;2.72;2.42;;;23.70;56.40;;;;;;5015270;28;20665;-37
2021/10/29 01:35:18;;;;;;;3.70;2.20;;;23.80;56.30;;;;;;5031844;28;20250;-44
2021/10/29 01:37:51;;;;;;;4.32;2.60;;;23.80;56.30;;;;;;5030615;28;20231;-38
2021/10/29 01:40:21;;;;;;;3.22;2.75;;;23.80;56.10;;;;;;5019280;28;20296;-38
2021/10/29 01:42:52;;;;;;;4.78;2.88;;;23.80;56.10;;;;;;5017854;28;20224;-44
2021/10/29 01:45:23;;;;;;;3.03;2.53;;;23.90;56.00;;;;;;5022799;28;20284;-38
2021/10/29 01:47:53;;;;;;;3.50;2.53;;;23.80;55.80;;;;;;5024393;28;20227;-43
2021/10/29 01:50:25;;;;;;;3.92;3.10;;;23.90;55.80;;;;;;5030978;28;20726;-40
2021/10/29 01:52:57;;;;;;;3.35;3.05;;;23.90;55.80;;;;;;5031920;28;20251;-41
2021/10/29 01:55:28;;;;;;;4.13;2.90;;;23.90;55.90;;;;;;5032249;28;20283;-44
2021/10/29 01:57:58;;;;;;;3.47;2.50;;;23.90;56.00;;;;;;5028733;28;20243;-39
2021/10/29 02:00:29;;;;;;;2.58;2.38;;;23.90;56.10;;;;;;5015292;28;20240;-41
2021/10/29 02:02:59;;;;;;;2.70;2.50;;;24.00;56.20;;;;;;5028891;28;20307;-38
2021/10/29 02:05:29;;;;;;;2.78;2.58;;;24.00;56.20;;;;;;5028742;28;20228;-43
2021/10/29 02:08:02;;;;;;;2.80;2.60;;;24.00;56.20;;;;;;5023939;28;20664;-39
2021/10/29 02:10:32;;;;;;;3.15;2.50;;;24.00;56.20;;;;;;5030015;28;20271;-38
2021/10/29 02:13:03;;;;;;;4.82;2.53;;;24.00;56.10;;;;;;5029754;28;20263;-41
2021/10/29 02:15:33;;;;;;;2.90;2.70;;;24.10;56.20;;;;;;5015769;28;20235;-41
2021/10/29 02:18:04;;;;;;;3.20;2.90;;;24.10;56.10;;;;;;5012639;28;20295;-44
2021/10/29 02:20:34;;;;;;;2.53;2.33;;;24.10;56.10;;;;;;5030687;28;20235;-39
2021/10/29 02:23:07;;;;;;;3.25;3.00;;;24.10;56.00;;;;;;5028750;28;20243;-42
2021/10/29 02:25:39;;;;;;;3.13;2.83;;;24.10;55.80;;;;;;5030066;28;20676;-43
2021/10/29 02:28:10;;;;;;;3.17;2.88;;;24.10;55.60;;;;;;5027892;28;20204;-38
2021/10/29 02:30:40;;;;;;;2.72;2.42;;;24.10;55.60;;;;;;5025723;28;20307;-40
2021/10/29 02:33:11;;;;;;;3.60;2.40;;;24.10;55.40;;;;;;5029856;28;20259;-38
2021/10/29 02:35:41;;;;;;;3.03;2.83;;;24.20;55.40;;;;;;5030330;28;20259;-39
2021/10/29 02:38:14;;;;;;;3.00;2.80;;;24.20;55.40;;;;;;5030242;28;20254;-40
2021/10/29 02:40:45;;;;;;;2.97;2.78;;;24.20;55.40;;;;;;5030075;28;20255;-42
2021/10/29 02:43:15;;;;;;;2.80;2.60;;;24.20;55.50;;;;;;5013675;28;20255;-43
2021/10/29 02:45:46;;;;;;;2.70;2.50;;;24.20;55.60;;;;;;5028458;28;20648;-40
2021/10/29 02:48:16;;;;;;;3.47;3.17;;;24.20;55.70;;;;;;5019930;28;20238;-41
2021/10/29 02:50:47;;;;;;;3.00;2.72;;;24.20;55.70;;;;;;5027136;28;20310;-41
2021/10/29 02:53:19;;;;;;;2.85;2.65;;;24.20;55.70;;;;;;5029278;28;20766;-38
2021/10/29 02:55:50;;;;;;;2.63;2.42;;;24.20;55.60;;;;;;5029199;28;20224;-38
2021/10/29 02:58:20;;;;;;;2.90;2.70;;;24.20;55.60;;;;;;5019676;28;20273;-40
2021/10/29 03:00:50;;;;;;;3.22;2.92;;;24.30;55.60;;;;;;5024873;28;20284;-41
2021/10/29 03:03:21;;;;;;;2.92;2.72;;;24.30;55.60;;;;;;5030568;28;20239;-39
2021/10/29 03:05:51;;;;;;;3.20;2.90;;;24.30;55.60;;;;;;5030985;28;20262;-42
2021/10/29 03:08:24;;;;;;;3.38;3.08;;;24.30;55.50;;;;;;5014519;28;20235;-41
2021/10/29 03:10:54;;;;;;;3.25;2.95;;;24.30;55.40;;;;;;5021116;28;20251;-43
2021/10/29 03:13:25;;;;;;;2.38;2.17;;;24.30;55.30;;;;;;5029163;28;20240;-42
2021/10/29 03:15:56;;;;;;;2.90;2.70;;;24.30;55.10;;;;;;5029413;28;20223;-42
2021/10/29 03:18:26;;;;;;;3.70;2.83;;;24.30;55.00;;;;;;5029099;28;20228;-41
2021/10/29 03:20:57;;;;;;;3.55;3.25;;;24.30;54.90;;;;;;5028861;28;20231;-40
2021/10/29 03:23:29;;;;;;;3.15;2.85;;;24.30;54.90;;;;;;5028696;28;20204;-39
2021/10/29 03:26:00;;;;;;;2.92;2.72;;;24.30;54.90;;;;;;5029252;28;20239;-43
2021/10/29 03:28:30;;;;;;;3.38;2.90;;;24.30;54.90;;;;;;5015158;28;20240;-41
2021/10/29 03:31:01;;;;;;;3.28;2.85;;;24.30;55.00;;;;;;5024939;28;20630;-40
2021/10/29 03:33:36;;;;;;;3.00;2.80;;;24.30;55.10;;;;;;5014168;28;20236;-45
2021/10/29 03:36:08;;;;;;;2.53;2.33;;;24.30;55.10;;;;;;5024148;28;20199;-39
2021/10/29 03:38:48;;;;;;;2.70;2.47;;;24.30;55.00;;;;;;5023355;28;20197;-38
2021/10/29 03:41:20;;;;;;;2.70;2.50;;;24.30;54.90;;;;;;5020109;28;20220;-39
2021/10/29 03:43:55;;;;;;;3.28;2.97;;;24.30;55.00;;;;;;5017499;28;20206;-40
2021/10/29 03:46:26;;;;;;;2.90;2.70;;;24.30;55.00;;;;;;5015709;28;20265;-37
2021/10/29 03:49:07;;;;;;;3.47;2.55;;;24.30;55.10;;;;;;5028806;28;20195;-41
2021/10/29 03:51:40;;;;;;;2.60;2.40;;;24.30;55.10;;;;;;5029958;28;21652;-41
2021/10/29 03:54:15;;;;;;;2.80;2.60;;;24.30;55.10;;;;;;5028786;28;20675;-37
2021/10/29 03:56:56;;;;;;;2.50;2.28;;;24.30;55.10;;;;;;5025178;28;20204;-42
2021/10/29 03:59:26;;;;;;;2.35;2.15;;;24.30;55.00;;;;;;5027296;28;20204;-43
2021/10/29 04:01:57;;;;;;;2.88;1.80;;;24.30;55.00;;;;;;5028335;28;20307;-37
2021/10/29 04:04:27;;;;;;;2.20;2.00;;;24.30;55.00;;;;;;5024113;28;20227;-39
2021/10/29 04:06:58;;;;;;;3.47;2.17;;;24.30;54.90;;;;;;5028716;28;20258;-41
2021/10/29 04:09:30;;;;;;;2.50;1.90;;;24.30;54.80;;;;;;5027492;28;20227;-43
2021/10/29 04:12:01;;;;;;;2.25;2.05;;;24.30;54.60;;;;;;5028152;28;20220;-41
2021/10/29 04:14:31;;;;;;;2.38;2.17;;;24.20;54.40;;;;;;5028112;28;20247;-40
2021/10/29 04:17:02;;;;;;;2.30;2.10;;;24.30;54.40;;;;;;5029205;28;20289;-39
2021/10/29 04:19:33;;;;;;;2.45;2.10;;;24.20;54.50;;;;;;5029983;28;20263;-43
2021/10/29 04:22:03;;;;;;;2.00;1.90;;;24.30;54.70;;;;;;5026711;28;20251;-42
2021/10/29 04:24:35;;;;;;;3.22;2.15;;;24.20;54.80;;;;;;5020426;28;20236;-41
2021/10/29 04:27:06;;;;;;;2.10;1.90;;;24.20;54.70;;;;;;5024462;28;20680;-42
2021/10/29 04:29:39;;;;;;;2.53;2.33;;;24.20;54.80;;;;;;5023710;28;20255;-39
2021/10/29 04:32:10;;;;;;;2.20;2.00;;;24.20;54.70;;;;;;5032732;28;20220;-39
2021/10/29 04:34:40;;;;;;;3.60;2.63;;;24.30;54.70;;;;;;5025492;28;20275;-40
2021/10/29 04:37:11;;;;;;;2.00;1.80;;;24.20;54.60;;;;;;5032572;28;20672;-39
2021/10/29 04:39:43;;;;;;;2.30;2.10;;;24.20;54.40;;;;;;5032221;28;20660;-45
2021/10/29 04:42:16;;;;;;;2.85;1.95;;;24.20;54.20;;;;;;5032389;28;20220;-39
2021/10/29 04:44:46;;;;;;;2.28;2.08;;;24.20;54.10;;;;;;5030950;28;20211;-42
2021/10/29 04:47:17;;;;;;;2.47;1.80;;;24.20;54.10;;;;;;5031955;28;20722;-40
2021/10/29 04:49:48;;;;;;;2.15;2.03;;;24.20;54.10;;;;;;5031800;28;20297;-46
2021/10/29 04:52:18;;;;;;;2.53;2.17;;;24.20;54.20;;;;;;5026080;28;20313;-41
2021/10/29 04:54:51;;;;;;;1.95;1.85;;;24.20;54.20;;;;;;5022891;28;20672;-40
2021/10/29 04:57:21;;;;;;;2.05;1.95;;;24.20;54.30;;;;;;5031064;28;20287;-38
2021/10/29 04:59:52;;;;;;;2.08;1.98;;;24.20;54.20;;;;;;5033681;28;20239;-45
2021/10/29 05:02:22;;;;;;;2.15;1.95;;;24.20;54.20;;;;;;5043698;22;20223;-39
2021/10/29 05:04:53;;;;;;;2.13;2.00;;;24.20;54.20;;;;;;5026405;28;20223;-39
2021/10/29 05:07:23;;;;;;;2.15;2.05;;;24.20;54.20;;;;;;5030714;28;20208;-41
2021/10/29 05:09:56;;;;;;;2.15;2.05;;;24.20;54.30;;;;;;5032798;28;20252;-40
2021/10/29 05:12:26;;;;;;;2.35;2.00;;;24.10;54.30;;;;;;5033789;28;20247;-40
2021/10/29 05:14:57;;;;;;;2.40;2.20;;;24.20;54.40;;;;;;5031371;28;20224;-40
2021/10/29 05:17:27;;;;;;;1.80;1.70;;;24.10;54.30;;;;;;5035017;28;20195;-40
2021/10/29 05:19:58;;;;;;;1.98;1.88;;;24.10;54.30;;;;;;5045003;28;20200;-40
2021/10/29 05:22:28;;;;;;;2.17;2.03;;;24.20;54.40;;;;;;5046502;28;20244;-40
2021/10/29 05:25:00;;;;;;;2.20;2.10;;;24.10;54.40;;;;;;5044556;28;20199;-40
2021/10/29 05:27:31;;;;;;;2.53;1.90;;;24.10;54.40;;;;;;5038199;28;20235;-40
2021/10/29 05:30:01;;;;;;;2.10;2.00;;;24.10;54.40;;;;;;5032722;28;20314;-41
2021/10/29 05:32:32;;;;;;;2.20;2.10;;;24.10;54.50;;;;;;5041909;28;20251;-41
2021/10/29 05:35:03;;;;;;;1.90;1.80;;;24.10;54.50;;;;;;5036980;28;20266;-40
2021/10/29 05:37:34;;;;;;;1.90;1.80;;;24.10;54.30;;;;;;5023972;28;20228;-41
2021/10/29 05:40:07;;;;;;;2.63;2.03;;;24.10;54.30;;;;;;5030831;28;20569;-41
2021/10/29 05:42:38;;;;;;;1.90;1.80;;;24.00;54.30;;;;;;5030938;28;20254;-41
2021/10/29 05:45:11;;;;;;;1.90;1.80;;;24.00;54.30;;;;;;5030985;28;20224;-41
2021/10/29 05:47:42;;;;;;;1.90;1.80;;;24.00;54.30;;;;;;5030577;28;20200;-41
2021/10/29 05:50:13;;;;;;;2.10;2.00;;;24.00;54.30;;;;;;5048049;28;20258;-41
2021/10/29 05:52:45;;;;;;;2.00;1.90;;;24.00;54.30;;;;;;5045802;28;20316;-41
2021/10/29 05:55:19;;;;;;;1.83;1.73;;;24.00;54.40;;;;;;5044138;28;20203;-41
2021/10/29 05:57:50;;;;;;;2.00;1.90;;;23.90;54.30;;;;;;5031012;28;20196;-41
2021/10/29 06:00:23;;;;;;;2.10;1.88;;;23.90;54.40;;;;;;5030572;28;20283;-40
2021/10/29 06:02:54;;;;;;;3.28;2.38;;;23.90;54.30;;;;;;5033814;22;20302;-38
2021/10/29 06:05:24;;;;;;;2.00;1.90;;;23.90;54.30;;;;;;5009106;28;20236;-36
2021/10/29 06:07:55;;;;;;;2.22;2.03;;;23.90;54.40;;;;;;5005064;28;20373;-35
2021/10/29 06:10:27;;;;;;;1.85;1.75;;;23.90;54.40;;;;;;4993826;28;20261;-36
2021/10/29 06:12:57;;;;;;;2.42;2.25;;;23.90;54.50;;;;;;5011990;28;20696;-35
2021/10/29 06:15:28;;;;;;;1.98;1.88;;;23.90;54.40;;;;;;5006765;28;20201;-36
2021/10/29 06:17:58;;;;;;;1.90;1.80;;;23.90;54.40;;;;;;4993677;28;20296;-36
2021/10/29 06:20:30;;;;;;;1.92;1.83;;;23.80;54.30;;;;;;4999470;28;20205;-35
2021/10/29 06:23:05;;;;;;;2.30;2.15;;;23.80;54.30;;;;;;5004818;28;20225;-37
2021/10/29 06:25:46;;;;;;;2.08;1.98;;;23.80;54.20;;;;;;5005959;28;20243;-35
2021/10/29 06:28:23;;;;;;;2.78;2.15;;;23.80;54.20;;;;;;4996388;28;20299;-37
2021/10/29 06:30:54;;;;;;;2.05;1.92;;;23.80;54.20;;;;;;4992471;28;20256;-35
2021/10/29 06:33:25;;;;;;;1.95;1.85;;;23.70;54.10;;;;;;4987022;28;20201;-37
2021/10/29 06:35:57;;;;;;;2.20;2.10;;;23.70;54.10;;;;;;4988252;28;20606;-35
2021/10/29 06:38:27;;;;;;;2.22;2.13;;;23.70;54.10;;;;;;4989301;28;20438;-35
2021/10/29 06:41:00;;;;;;;2.20;2.00;;;23.70;54.20;;;;;;5005191;28;20208;-35
2021/10/29 06:43:34;;;;;;;2.00;1.90;;;23.70;54.30;;;;;;4993132;28;20221;-36
2021/10/29 06:46:11;;;;;;;2.00;1.90;;;23.70;54.30;;;;;;5000062;28;20204;-37
2021/10/29 06:48:52;;;;;;;2.10;1.90;;;23.60;54.30;;;;;;4998124;28;20610;-36
2021/10/29 06:59:53;;;;;;;1.80;1.70;;;23.60;54.30;;;;;;4991863;28;20205;-36
2021/10/29 07:05:28;;;;;;;1.90;1.80;;;23.50;54.10;;;;;;4999996;28;20624;-35
2021/10/29 07:41:38;;;;;;;5.70;1.77;;;23.30;54.20;;;;;;4981840;28;20297;-45
2021/10/29 07:44:16;;;;;;;1.65;1.55;;;23.20;54.10;;;;;;4989366;28;20198;-46
2021/10/29 07:46:48;;;;;;;1.83;1.40;;;23.20;54.20;;;;;;5007267;28;20208;-47
2021/10/29 07:49:19;;;;;;;1.70;1.60;;;23.20;54.20;;;;;;4990788;28;20209;-49
2021/10/29 07:51:50;;;;;;;1.98;1.40;;;23.10;54.10;;;;;;4988934;28;20231;-55
2021/10/29 07:54:20;;;;;;;1.88;1.70;;;23.20;54.10;;;;;;4984207;28;20230;-49
2021/10/29 07:56:51;;;;;;;1.70;1.60;;;23.10;54.10;;;;;;4988472;28;20282;-46
2021/10/29 07:59:23;;;;;;;1.85;1.63;;;23.10;54.10;;;;;;4996069;28;20197;-50
2021/10/29 08:01:56;;;;;;;1.58;1.40;;;23.10;54.10;;;;;;4998504;28;20290;-59
2021/10/29 08:04:26;;;;;;;1.45;1.35;;;23.10;54.10;;;;;;5002959;28;20237;-48
2021/10/29 08:06:57;;;;;;;1.40;1.30;;;23.00;54.10;;;;;;4993924;28;20225;-53
2021/10/29 08:09:28;;;;;;;1.77;1.60;;;23.00;54.10;;;;;;5007245;28;20207;-46
2021/10/29 08:11:59;;;;;;;2.28;1.40;;;23.00;54.10;;;;;;4991522;28;20307;-48
2021/10/29 08:14:30;;;;;;;1.90;1.80;;;22.90;54.00;;;;;;4997781;28;20248;-45
2021/10/29 08:17:02;;;;;;;1.48;1.38;;;22.90;54.00;;;;;;5002375;28;20235;-48
2021/10/29 08:19:33;;;;;;;2.10;1.30;;;22.90;54.10;;;;;;4995090;28;20225;-49
2021/10/29 08:22:04;;;;;;;1.50;1.40;;;22.90;54.10;;;;;;4991021;28;20263;-48
2021/10/29 08:24:37;;;;;;;1.45;1.35;;;22.90;54.20;;;;;;4993019;28;20232;-48
2021/10/29 08:27:08;;;;;;;1.95;1.55;;;22.90;54.20;;;;;;4999492;28;20197;-49
2021/10/29 08:29:40;;;;;;;1.90;1.60;;;22.80;54.20;;;;;;4989355;28;20314;-54
2021/10/29 08:32:12;;;;;;;1.60;1.50;;;22.80;54.20;;;;;;4990759;28;20288;-49
2021/10/29 08:34:43;;;;;;;1.70;1.60;;;22.80;54.20;;;;;;4977594;28;20230;-44
2021/10/29 08:37:15;;;;;;;1.65;1.55;;;22.80;54.80;;;;;;5005500;28;20209;-44
2021/10/29 08:39:45;;;;;;;1.60;1.50;;;22.80;54.20;;;;;;4990680;28;20267;-47
2021/10/29 08:42:16;;;;;;;1.20;1.13;;;22.70;54.10;;;;;;4999452;28;20220;-49
2021/10/29 08:44:46;;;;;;;1.88;1.50;;;22.80;54.20;;;;;;5002821;28;20236;-44
2021/10/29 08:47:21;;;;;;;1.63;1.52;;;22.80;54.20;;;;;;5002304;28;20263;-46
2021/10/29 08:49:53;;;;;;;1.52;1.40;;;22.70;54.20;;;;;;5002372;28;20205;-47
2021/10/29 08:52:24;;;;;;;1.50;1.40;;;22.70;54.20;;;;;;4990359;28;20252;-51
2021/10/29 08:54:55;;;;;;;1.63;1.52;;;22.60;54.20;;;;;;4983455;28;20205;-44
2021/10/29 08:57:27;;;;;;;1.60;1.50;;;22.60;54.20;;;;;;4997297;28;20197;-45
2021/10/29 08:59:59;;;;;;;1.60;1.50;;;22.60;54.30;;;;;;5002443;28;20642;-44
2021/10/29 09:02:33;;;;;;;1.30;1.20;;;22.60;54.30;;;;;;5007300;23;20301;-49
2021/10/29 09:05:11;;;;;;;1.60;1.50;;;22.50;54.30;;;;;;5028345;28;20258;-47
2021/10/29 09:07:50;;;;;;;1.70;1.60;;;22.50;54.30;;;;;;5022488;28;20196;-49
2021/10/29 09:32:54;;;;;;;1.40;1.30;;;22.40;54.40;;;;;;4984335;28;20223;-59
2021/10/29 09:35:28;;;;;;;1.70;1.60;;;22.40;54.40;;;;;;5010609;28;20205;-51
2021/10/29 09:38:03;;;;;;;1.85;1.60;;;22.30;54.40;;;;;;5011069;28;20193;-49
2021/10/29 09:40:35;;;;;;;1.40;1.30;;;22.30;54.40;;;;;;5012172;28;20199;-49
2021/10/29 09:43:12;;;;;;;1.20;1.20;;;22.30;54.50;;;;;;4997865;28;20267;-54
2021/10/29 09:45:49;;;;;;;1.30;1.20;;;22.30;54.50;;;;;;4994768;28;20769;-51
2021/10/29 09:48:21;;;;;;;1.55;1.40;;;22.20;54.50;;;;;;4995306;28;20792;-50
2021/10/29 09:50:56;;;;;;;1.65;1.55;;;22.20;54.60;;;;;;5002821;28;20320;-50
2021/10/29 09:53:41;;;;;;;1.45;1.35;;;22.20;54.60;;;;;;5006966;28;20314;-50
2021/10/29 09:56:15;;;;;;;1.50;1.40;;;22.20;54.60;;;;;;5015518;28;20679;-52
2021/10/29 09:58:46;;;;;;;3.35;1.55;;;22.20;54.60;;;;;;5014524;28;20708;-46
2021/10/29 10:01:17;;;;;;;2.20;1.70;;;22.20;54.60;;;;;;5010774;28;20205;-52
2021/10/29 10:03:50;;;;;;;1.65;1.55;;;22.20;54.70;;;;;;5008195;28;20240;-55
2021/10/29 10:06:22;;;;;;;2.55;1.58;;;22.20;55.20;;;;;;5009803;28;20219;-46
2021/10/29 10:08:54;;;;;;;2.03;1.60;;;22.10;54.60;;;;;;5010258;28;20244;-49
2021/10/29 10:11:26;;;;;;;1.55;1.40;;;22.10;54.60;;;;;;5000881;28;20249;-55
2021/10/29 10:13:57;;;;;;;1.67;1.58;;;22.10;54.60;;;;;;4996575;28;20243;-55
2021/10/29 10:16:29;;;;;;;1.92;1.50;;;22.10;54.60;;;;;;5009709;28;20228;-52
2021/10/29 10:19:00;;;;;;;2.03;1.80;;;22.10;54.60;;;;;;5011134;28;20712;-57
2021/10/29 10:21:39;;;;;;;1.50;1.40;;;22.00;54.60;;;;;;5010069;28;20260;-50
2021/10/29 10:24:14;;;;;;;1.67;1.40;;;22.00;54.60;;;;;;5011343;28;20204;-53
2021/10/29 10:27:21;;;;;;;1.58;1.27;;;22.00;54.60;;;;;;5010086;28;20656;-49
2021/10/29 10:41:41;;;;;;;3.13;1.77;;;22.00;56.00;;;;;;4943998;28;20292;-48
2021/10/29 10:44:43;;;;;;;2.67;1.55;;;22.00;56.20;;;;;;5005613;28;20201;-50
2021/10/29 10:47:21;;;;;;;2.75;1.70;;;22.00;56.20;;;;;;4998188;28;20244;-48
2021/10/29 10:50:11;;;;;;;1.90;1.70;;;22.00;56.20;;;;;;5005754;28;20197;-51
2021/10/29 10:53:29;;;;;;;1.70;1.52;;;22.00;56.30;;;;;;5007336;28;20294;-51
2021/10/29 10:59:00;;;;;;;2.88;1.55;;;22.00;56.20;;;;;;5005916;28;20197;-49
2021/10/29 11:01:59;;;;;;;1.70;1.60;;;22.00;56.20;;;;;;5008866;28;20956;-50
2021/10/29 11:10:44;;;;;;;2.13;1.55;;;22.00;56.10;;;;;;5008448;28;20200;-49
2021/10/29 11:13:15;;;;;;;1.63;1.42;;;22.00;56.20;;;;;;5008818;28;20291;-46
2021/10/29 11:16:01;;;;;;;3.00;1.67;;;21.90;56.10;;;;;;5007063;28;20236;-54
2021/10/29 11:18:35;;;;;;;1.60;1.50;;;21.90;56.10;;;;;;5007053;28;20294;-48
2021/10/29 11:21:20;;;;;;;2.10;1.88;;;21.90;56.10;;;;;;4998820;28;20228;-48
2021/10/29 11:23:56;;;;;;;1.70;1.38;;;21.90;56.10;;;;;;5003955;28;20205;-46
2021/10/29 11:26:32;;;;;;;2.65;1.60;;;21.90;56.10;;;;;;4999588;28;20209;-47
2021/10/29 11:29:04;;;;;;;2.58;1.65;;;21.90;56.10;;;;;;5001157;28;20287;-46
2021/10/29 11:31:36;;;;;;;1.83;1.70;;;21.90;56.00;;;;;;5008273;28;20579;-47
2021/10/29 11:34:12;;;;;;;2.17;1.70;;;21.90;56.00;;;;;;5008132;28;20244;-49
2021/10/29 11:36:44;;;;;;;1.90;1.67;;;21.90;56.00;;;;;;5009451;28;20193;-47
2021/10/29 11:39:16;;;;;;;1.80;1.70;;;21.90;56.00;;;;;;5007988;28;20228;-47
2021/10/29 11:41:49;;;;;;;2.40;1.60;;;21.80;56.00;;;;;;5006558;28;20263;-46
2021/10/29 11:44:23;;;;;;;1.77;1.67;;;21.80;56.00;;;;;;5008559;28;20201;-49
2021/10/29 11:46:56;;;;;;;1.92;1.70;;;21.80;56.00;;;;;;5008104;28;20639;-46
2021/10/29 11:49:28;;;;;;;1.85;1.70;;;21.80;56.00;;;;;;5007709;28;20294;-49
2021/10/29 11:52:01;;;;;;;1.70;1.60;;;21.80;56.00;;;;;;5007766;28;20228;-46
2021/10/29 11:54:34;;;;;;;1.77;1.40;;;21.80;56.00;;;;;;5007676;28;20595;-47
2021/10/29 11:57:22;;;;;;;3.15;1.70;;;21.80;56.00;;;;;;5008057;28;20224;-44
2021/10/29 12:00:10;;;;;;;1.83;1.50;;;21.80;56.00;;;;;;5008211;28;20193;-46
2021/10/29 12:06:00;;;;;;;1.58;1.48;;;21.80;55.90;;;;;;4997231;28;20200;-47
2021/10/29 12:08:32;;;;;;;2.03;1.70;;;21.70;55.80;;;;;;5008619;28;20678;-44
2021/10/29 12:11:06;;;;;;;2.30;1.40;;;21.70;55.80;;;;;;5007819;28;20199;-51
2021/10/29 12:13:40;;;;;;;2.08;1.40;;;21.70;55.80;;;;;;5007833;28;20242;-48
2021/10/29 12:16:20;;;;;;;1.75;1.60;;;21.70;55.80;;;;;;5008547;28;20258;-44
2021/10/29 12:19:03;;;;;;;1.80;1.70;;;21.70;55.80;;;;;;5008242;28;20673;-45
2021/10/29 12:21:39;;;;;;;2.08;1.60;;;21.70;55.80;;;;;;5008903;28;20684;-50
2021/10/29 12:24:13;;;;;;;1.85;1.33;;;21.70;55.80;;;;;;5008784;28;20193;-47
2021/10/29 12:26:44;;;;;;;1.73;1.60;;;21.60;55.80;;;;;;5007421;28;20208;-48
2021/10/29 12:29:18;;;;;;;1.95;1.75;;;21.60;55.80;;;;;;5006357;28;20283;-47
2021/10/29 12:37:54;;;;;;;1.60;1.50;;;21.60;55.80;;;;;;5006475;28;20729;-49
2021/10/29 12:52:12;;;;;;;1.60;1.50;;;21.50;55.70;;;;;;5011402;28;20274;-44
2021/10/29 13:03:14;;;;;;;1.70;1.60;;;21.40;56.30;;;;;;4999591;28;20797;-48
2021/10/29 13:05:54;;;;;;;2.17;1.58;;;21.40;55.70;;;;;;5004936;28;20235;-47
2021/10/29 13:08:26;;;;;;;1.85;1.60;;;21.40;55.70;;;;;;5010546;28;20276;-46
2021/10/29 13:10:58;;;;;;;1.70;1.60;;;21.40;55.70;;;;;;5011296;28;20207;-49
2021/10/29 13:13:32;;;;;;;1.90;1.50;;;21.40;55.70;;;;;;5010492;28;20692;-47
2021/10/29 13:16:05;;;;;;;1.50;1.40;;;21.40;55.80;;;;;;5010568;28;20204;-47
2021/10/29 13:18:45;;;;;;;1.63;1.50;;;21.30;55.80;;;;;;5011309;28;20193;-49
2021/10/29 13:24:45;;;;;;;1.95;1.50;;;21.30;55.80;;;;;;5103690;27;21064;-51
2021/10/29 13:36:03;;;;;;;1.88;1.50;;;21.20;56.50;;;;;;5085277;28;20251;-46
2021/10/29 13:52:40;;;;;;;1.55;1.45;;;21.20;55.90;;;;;;5084142;28;20257;-47
2021/10/29 13:55:28;;;;;;;1.60;1.50;;;21.10;55.80;;;;;;5084528;28;20198;-47
2021/10/29 14:28:51;;;;;;;1.80;1.70;;;20.90;56.10;;;;;;5085769;28;20691;-53
2021/10/29 14:31:28;;;;;;;1.60;1.50;;;20.90;56.10;;;;;;5084348;28;20218;-48
2021/10/29 14:34:02;;;;;;;1.50;1.40;;;20.80;56.00;;;;;;5081112;28;20570;-47
2021/10/29 14:36:42;;;;;;;1.70;1.60;;;20.80;56.10;;;;;;5069604;28;20559;-50
2021/10/29 14:39:15;;;;;;;1.40;1.30;;;20.80;56.10;;;;;;5068425;28;20260;-47
2021/10/29 14:41:55;;;;;;;1.60;1.50;;;20.80;56.00;;;;;;5070034;28;20211;-48
2021/10/29 14:44:30;;;;;;;1.70;1.60;;;20.80;56.10;;;;;;5071329;28;20272;-47
2021/10/29 14:47:13;;;;;;;1.48;1.38;;;20.80;56.10;;;;;;5071584;28;20204;-46
2021/10/29 14:50:10;;;;;;;1.50;1.40;;;20.80;56.10;;;;;;5070083;28;20195;-53
2021/10/29 15:04:17;;;;;;;1.77;1.60;;;20.70;56.20;;;;;;5059351;28;20229;-50
2021/10/29 15:07:10;;;;;;;1.70;1.60;;;20.70;56.20;;;;;;5069288;28;20238;-47
2021/10/29 15:18:38;;;;;;;2.30;1.80;;;20.60;56.20;;;;;;5069048;28;20205;-45
2021/10/29 15:27:06;;;;;;;1.50;1.40;;;20.60;56.20;;;;;;5059929;28;20206;-47
2021/10/29 15:29:47;;;;;;;1.38;1.27;;;20.60;56.20;;;;;;5069643;28;20198;-49
2021/10/29 15:43:47;;;;;;;1.70;1.60;;;20.50;56.30;;;;;;5070314;28;20279;-46
2021/10/29 15:46:20;;;;;;;2.00;1.80;;;20.50;56.40;;;;;;5067792;28;20230;-51
2021/10/29 15:48:54;;;;;;;1.60;1.50;;;20.50;56.40;;;;;;5068896;28;20194;-45
2021/10/29 15:51:25;;;;;;;1.58;1.48;;;20.50;56.40;;;;;;5069873;28;20217;-46
2021/10/29 15:54:00;;;;;;;1.60;1.50;;;20.40;56.40;;;;;;5070225;28;20302;-45
2021/10/29 15:56:35;;;;;;;1.63;1.52;;;20.40;56.40;;;;;;5068868;28;20243;-49
2021/10/29 15:59:18;;;;;;;1.88;1.77;;;20.40;56.40;;;;;;5069738;28;20217;-48
2021/10/29 16:01:52;;;;;;;1.70;1.60;;;20.40;56.40;;;;;;5066889;28;20297;-48
2021/10/29 16:18:17;;;;;;;1.67;1.58;;;20.40;56.40;;;;;;5068520;28;20301;-50
2021/10/29 16:20:47;;;;;;;1.67;1.58;;;20.30;56.30;;;;;;5068049;28;20278;-45
2021/10/29 16:23:18;;;;;;;1.48;1.38;;;20.30;56.40;;;;;;5067154;28;20711;-50
2021/10/29 16:25:54;;;;;;;1.60;1.50;;;20.30;56.40;;;;;;5067266;28;20205;-50
2021/10/29 16:28:29;;;;;;;1.50;1.40;;;20.30;56.40;;;;;;5068294;28;20602;-46
2021/10/29 16:31:00;;;;;;;1.50;1.40;;;20.30;56.40;;;;;;5067626;28;20194;-50
2021/10/29 16:33:32;;;;;;;1.50;1.40;;;20.30;56.40;;;;;;5069273;28;20296;-48
2021/10/29 16:36:03;;;;;;;1.50;1.40;;;20.30;56.50;;;;;;5068365;28;20665;-46
2021/10/29 16:38:34;;;;;;;1.70;1.42;;;20.30;56.50;;;;;;5069270;28;20238;-47
2021/10/29 16:41:07;;;;;;;1.85;1.60;;;20.30;56.50;;;;;;5066218;28;20227;-46
2021/10/29 16:43:37;;;;;;;1.73;1.63;;;20.30;56.40;;;;;;5069043;28;20253;-45
2021/10/29 16:46:08;;;;;;;1.40;1.30;;;20.20;56.40;;;;;;5067563;28;20191;-47
2021/10/29 16:48:39;;;;;;;1.70;1.60;;;20.20;56.40;;;;;;5069099;28;20230;-51
2021/10/29 16:51:12;;;;;;;1.60;1.50;;;20.30;56.40;;;;;;5067831;28;20245;-49
2021/10/29 16:53:43;;;;;;;2.20;1.80;;;20.30;56.40;;;;;;5068036;28;20580;-49
2021/10/29 16:56:15;;;;;;;1.60;1.50;;;20.30;56.40;;;;;;5068658;28;20291;-46
2021/10/29 16:58:47;;;;;;;1.60;1.50;;;20.20;56.40;;;;;;5068380;28;20227;-47
2021/10/29 17:01:17;;;;;;;1.73;1.63;;;20.20;56.40;;;;;;5067334;28;20569;-51
2021/10/29 17:03:48;;;;;;;2.67;1.70;;;20.20;56.40;;;;;;5066903;28;20254;-50
2021/10/29 17:06:18;;;;;;;2.15;1.52;;;20.20;56.50;;;;;;5068455;28;20627;-45